Time;durP1;ratioP1;P1;durP2;ratioP2;P2;SDS_P1;SDS_P2;PMS_P1;PMS_P2;Temp;Humidity;BMP_temperature;BMP_pressure;BME280_temperature;BME280_humidity;BME280_pressure;Samples;Min_cycle;Max_cycle;Signal;HPM_P1;HPM_P2
2021/03/02 00:00:50;;;;;;;20.85;13.18;;;4.20;82.80;;;;;;5071229;28;20021;-76
2021/03/02 00:03:16;;;;;;;21.75;12.27;;;4.20;82.90;;;;;;5071224;28;20045;-76
2021/03/02 00:05:46;;;;;;;19.25;12.60;;;4.20;82.90;;;;;;5071405;28;20379;-75
2021/03/02 00:08:13;;;;;;;20.83;12.60;;;4.20;83.00;;;;;;5069914;28;20494;-77
2021/03/02 00:10:42;;;;;;;20.48;12.77;;;4.20;82.90;;;;;;5069927;28;20067;-76
2021/03/02 00:13:10;;;;;;;20.35;13.93;;;4.20;82.90;;;;;;5071799;28;20012;-76
2021/03/02 00:15:36;;;;;;;21.77;13.40;;;4.20;82.90;;;;;;5074819;28;20116;-76
2021/03/02 00:18:02;;;;;;;19.20;12.07;;;4.20;82.80;;;;;;5073605;28;20498;-76
2021/03/02 00:20:34;;;;;;;19.83;12.50;;;4.20;82.80;;;;;;5074711;28;20028;-76
2021/03/02 00:23:05;;;;;;;20.88;12.38;;;4.20;82.90;;;;;;5074657;28;20048;-76
2021/03/02 00:25:44;;;;;;;18.52;11.70;;;4.20;82.90;;;;;;5074783;28;20524;-76
2021/03/02 00:28:10;;;;;;;18.73;12.00;;;4.20;82.90;;;;;;5073425;28;20037;-76
2021/03/02 00:30:37;;;;;;;19.13;11.52;;;4.20;82.90;;;;;;5074753;28;20020;-77
2021/03/02 00:33:05;;;;;;;17.77;12.25;;;4.20;82.90;;;;;;5074474;28;20029;-75
2021/03/02 00:35:32;;;;;;;16.40;11.25;;;4.30;82.90;;;;;;5074526;28;20475;-76
2021/03/02 00:37:57;;;;;;;17.77;10.98;;;4.30;82.90;;;;;;5074371;28;20032;-76
2021/03/02 00:40:24;;;;;;;17.05;11.18;;;4.20;82.70;;;;;;5074349;28;20031;-75
2021/03/02 00:42:51;;;;;;;17.73;11.15;;;4.20;82.70;;;;;;5074306;28;20074;-75
2021/03/02 00:45:19;;;;;;;16.73;10.93;;;4.20;82.50;;;;;;5073203;28;20036;-76
2021/03/02 00:47:45;;;;;;;14.85;11.23;;;4.20;82.60;;;;;;5074166;28;20086;-76
2021/03/02 00:50:11;;;;;;;14.57;10.13;;;4.20;82.70;;;;;;5073109;28;20466;-76
2021/03/02 00:52:37;;;;;;;15.32;10.73;;;4.10;82.60;;;;;;5074335;28;20074;-76
2021/03/02 00:55:06;;;;;;;15.90;10.40;;;4.10;82.60;;;;;;5074214;28;20021;-76
2021/03/02 00:57:32;;;;;;;19.15;11.65;;;4.10;82.70;;;;;;5072762;28;20048;-75
2021/03/02 00:59:58;;;;;;;15.02;10.80;;;4.10;82.70;;;;;;5074100;28;20455;-76
2021/03/02 01:02:24;;;;;;;16.27;10.88;;;4.10;82.90;;;;;;5073729;28;20059;-75
2021/03/02 01:04:50;;;;;;;15.68;10.18;;;4.10;82.80;;;;;;5074193;28;20033;-75
2021/03/02 01:07:16;;;;;;;17.50;11.35;;;4.10;82.80;;;;;;5072591;28;20032;-75
2021/03/02 01:09:41;;;;;;;17.98;11.45;;;4.20;82.80;;;;;;5073890;28;20067;-75
2021/03/02 01:12:07;;;;;;;18.40;11.07;;;4.20;82.80;;;;;;5072578;28;20119;-75
2021/03/02 01:14:33;;;;;;;15.18;10.63;;;4.10;82.60;;;;;;5072611;28;20540;-76
2021/03/02 01:16:59;;;;;;;17.83;10.27;;;4.10;82.60;;;;;;5072763;28;20017;-76
2021/03/02 01:19:25;;;;;;;15.68;10.65;;;4.10;82.80;;;;;;5073985;28;20058;-77
2021/03/02 01:21:51;;;;;;;17.10;11.25;;;4.10;82.70;;;;;;5073694;28;20035;-77
2021/03/02 01:24:17;;;;;;;14.02;10.13;;;4.10;82.70;;;;;;5072064;28;20199;-76
2021/03/02 01:26:43;;;;;;;16.42;10.38;;;4.10;82.70;;;;;;5073634;28;20025;-76
2021/03/02 01:29:09;;;;;;;16.05;10.75;;;4.10;82.80;;;;;;5072419;28;20363;-77
2021/03/02 01:31:35;;;;;;;16.15;10.60;;;4.20;82.80;;;;;;5073546;28;20027;-77
2021/03/02 01:34:00;;;;;;;15.65;10.57;;;4.20;82.80;;;;;;5073732;28;20024;-76
2021/03/02 01:36:26;;;;;;;17.85;11.00;;;4.20;82.70;;;;;;5073544;28;20020;-76
2021/03/02 01:38:52;;;;;;;14.95;10.60;;;4.20;82.70;;;;;;5072266;28;20520;-76
2021/03/02 01:41:18;;;;;;;14.35;10.05;;;4.20;82.60;;;;;;5073493;28;20028;-76
2021/03/02 01:43:44;;;;;;;15.80;10.32;;;4.20;82.60;;;;;;5072279;28;20032;-76
2021/03/02 01:46:11;;;;;;;15.45;9.95;;;4.20;82.60;;;;;;5073260;28;20382;-76
2021/03/02 01:48:38;;;;;;;16.20;10.52;;;4.10;82.60;;;;;;5073076;28;20028;-76
2021/03/02 01:51:05;;;;;;;13.18;9.63;;;4.20;82.60;;;;;;5073190;28;20020;-76
2021/03/02 01:53:31;;;;;;;13.88;9.23;;;4.10;82.50;;;;;;5073282;28;20046;-76
2021/03/02 01:55:58;;;;;;;15.38;10.05;;;4.20;82.60;;;;;;5071849;28;20024;-76
2021/03/02 01:58:27;;;;;;;15.23;10.05;;;4.20;82.70;;;;;;5072986;28;20104;-76
2021/03/02 02:00:57;;;;;;;16.38;10.30;;;4.20;82.60;;;;;;5072745;28;20044;-76
2021/03/02 02:03:38;;;;;;;15.82;9.25;;;4.20;82.60;;;;;;5072643;28;20082;-76
2021/03/02 02:06:12;;;;;;;13.85;8.48;;;4.20;82.60;;;;;;5072969;28;20029;-76
2021/03/02 02:08:44;;;;;;;12.82;8.75;;;4.20;82.80;;;;;;5071306;28;20047;-76
2021/03/02 02:11:17;;;;;;;;;;;4.20;82.50;;;;;;5073315;28;20048;-76
2021/03/02 02:13:49;;;;;;;14.70;9.20;;;4.30;82.60;;;;;;5072808;28;20408;-75
2021/03/02 02:16:16;;;;;;;13.57;9.15;;;4.30;82.40;;;;;;5071309;28;20059;-75
2021/03/02 02:18:43;;;;;;;11.60;8.13;;;4.30;82.30;;;;;;5072695;28;20029;-76
2021/03/02 02:21:09;;;;;;;12.75;8.65;;;4.30;82.40;;;;;;5072624;28;20471;-76
2021/03/02 02:23:34;;;;;;;14.10;8.88;;;4.30;82.40;;;;;;5071873;28;20032;-78
2021/03/02 02:26:18;;;;;;;15.23;9.00;;;4.30;82.40;;;;;;5072804;28;20029;-77
2021/03/02 02:28:46;;;;;;;11.90;8.27;;;4.30;82.40;;;;;;5072390;28;20027;-76
2021/03/02 02:31:13;;;;;;;12.05;7.55;;;4.30;82.40;;;;;;5072570;28;20021;-75
2021/03/02 02:33:43;;;;;;;12.88;7.50;;;4.30;82.20;;;;;;5070904;28;20047;-75
2021/03/02 02:36:12;;;;;;;11.63;7.82;;;4.30;82.20;;;;;;5071436;28;20039;-75
2021/03/02 02:38:42;;;;;;;12.57;7.95;;;4.30;82.00;;;;;;5072327;28;20025;-76
2021/03/02 02:41:09;;;;;;;12.82;8.52;;;4.30;82.00;;;;;;5072122;28;20413;-76
2021/03/02 02:43:36;;;;;;;13.38;8.75;;;4.30;82.00;;;;;;5072103;28;20020;-76
2021/03/02 02:46:02;;;;;;;16.10;8.93;;;4.30;81.90;;;;;;5072150;28;20025;-76
2021/03/02 02:48:30;;;;;;;13.13;8.52;;;4.40;81.90;;;;;;5071927;28;20524;-76
2021/03/02 02:50:56;;;;;;;15.93;9.15;;;4.30;81.90;;;;;;5072141;28;20017;-76
2021/03/02 02:53:22;;;;;;;17.02;8.60;;;4.30;81.90;;;;;;5072080;28;20059;-76
2021/03/02 02:55:59;;;;;;;15.10;8.27;;;4.30;81.90;;;;;;5072114;28;20459;-76
2021/03/02 02:58:30;;;;;;;14.85;9.23;;;4.30;81.80;;;;;;5070677;28;20035;-76
2021/03/02 03:01:00;;;;;;;18.52;8.70;;;4.30;81.60;;;;;;5071970;28;20017;-76
2021/03/02 03:03:27;;;;;;;16.13;8.60;;;4.30;81.70;;;;;;5071775;28;20101;-75
2021/03/02 03:06:00;;;;;;;17.65;8.20;;;4.30;81.70;;;;;;5072000;28;20029;-76
2021/03/02 03:08:31;;;;;;;13.35;7.55;;;4.20;81.70;;;;;;5071972;28;20032;-76
2021/03/02 03:10:59;;;;;;;13.95;8.40;;;4.30;81.80;;;;;;5071852;28;20051;-76
2021/03/02 03:13:29;;;;;;;13.90;7.97;;;4.30;81.80;;;;;;5070511;28;20031;-75
2021/03/02 03:16:01;;;;;;;12.68;7.68;;;4.30;81.80;;;;;;5071704;28;20016;-75
2021/03/02 03:18:32;;;;;;;;;;;4.30;81.70;;;;;;5072051;28;20033;-76
2021/03/02 03:21:01;;;;;;;10.68;7.47;;;4.20;81.70;;;;;;5071777;28;19909;-75
2021/03/02 03:23:30;;;;;;;13.30;7.88;;;4.30;81.80;;;;;;5070099;28;20446;-76
2021/03/02 03:25:55;;;;;;;12.68;7.43;;;4.30;81.70;;;;;;5071379;28;20466;-76
2021/03/02 03:28:23;;;;;;;10.98;7.28;;;4.30;81.60;;;;;;5070089;28;20059;-77
2021/03/02 03:30:49;;;;;;;10.38;6.85;;;4.30;81.60;;;;;;5071426;28;20016;-76
2021/03/02 03:33:17;;;;;;;10.27;6.70;;;4.30;81.50;;;;;;5071373;28;20020;-76
2021/03/02 03:35:43;;;;;;;13.32;7.20;;;4.30;81.60;;;;;;5071213;28;20017;-76
2021/03/02 03:38:09;;;;;;;11.15;6.78;;;4.30;81.50;;;;;;5071360;28;20103;-76
2021/03/02 03:40:35;;;;;;;10.15;7.20;;;4.30;81.60;;;;;;5071554;28;20025;-77
2021/03/02 03:43:01;;;;;;;9.40;6.20;;;4.30;81.50;;;;;;5070354;28;20078;-76
2021/03/02 03:45:27;;;;;;;9.38;5.80;;;4.30;81.50;;;;;;5071398;28;20471;-77
2021/03/02 03:47:54;;;;;;;10.27;6.57;;;4.30;81.40;;;;;;5073094;28;20024;-77
2021/03/02 03:50:20;;;;;;;8.55;6.28;;;4.30;81.40;;;;;;5073964;28;20029;-77
2021/03/02 03:52:51;;;;;;;8.98;6.30;;;4.30;81.20;;;;;;5075248;28;20023;-76
2021/03/02 03:55:20;;;;;;;8.90;6.57;;;4.30;81.20;;;;;;5074149;28;20029;-76
2021/03/02 03:57:47;;;;;;;7.95;5.80;;;4.30;81.10;;;;;;5074932;28;20023;-76
2021/03/02 04:00:14;;;;;;;7.68;6.05;;;4.30;81.20;;;;;;5074870;28;20016;-78
2021/03/02 04:02:40;;;;;;;8.23;6.15;;;4.30;81.10;;;;;;5074687;28;20044;-77
2021/03/02 04:05:07;;;;;;;9.13;5.93;;;4.30;81.20;;;;;;5074877;28;20021;-77
2021/03/02 04:07:34;;;;;;;9.55;5.35;;;4.30;81.00;;;;;;5073521;28;20363;-77
2021/03/02 04:10:04;;;;;;;7.20;5.38;;;4.30;81.10;;;;;;5073461;28;20097;-77
2021/03/02 04:12:41;;;;;;;7.50;5.78;;;4.30;81.00;;;;;;5074745;28;20021;-77
2021/03/02 04:15:12;;;;;;;6.93;5.75;;;4.20;80.80;;;;;;5074816;28;20028;-77
2021/03/02 04:17:38;;;;;;;9.15;5.32;;;4.20;80.60;;;;;;5073297;28;20032;-78
2021/03/02 04:20:07;;;;;;;8.20;5.30;;;4.10;80.30;;;;;;5073430;28;20021;-77
2021/03/02 04:22:37;;;;;;;7.32;5.15;;;4.00;80.30;;;;;;5073530;28;20024;-77
2021/03/02 04:25:04;;;;;;;7.38;5.60;;;3.90;80.30;;;;;;5074483;28;20561;-78
2021/03/02 04:27:29;;;;;;;6.88;4.97;;;3.90;80.40;;;;;;5074568;28;20048;-77
2021/03/02 04:29:55;;;;;;;8.68;5.00;;;3.80;80.40;;;;;;5073438;28;20795;-77
2021/03/02 04:32:21;;;;;;;7.15;4.90;;;3.80;80.50;;;;;;5074860;28;20031;-78
2021/03/02 04:34:47;;;;;;;5.55;4.43;;;3.70;80.60;;;;;;5075026;28;20028;-77
2021/03/02 04:37:12;;;;;;;5.95;4.93;;;3.60;80.50;;;;;;5074742;28;20029;-78
2021/03/02 04:39:39;;;;;;;7.95;5.50;;;3.60;80.80;;;;;;5074924;28;20032;-78
2021/03/02 04:42:05;;;;;;;10.27;4.97;;;3.60;80.80;;;;;;5074288;28;20078;-77
2021/03/02 04:44:31;;;;;;;8.27;5.93;;;3.60;80.90;;;;;;5074239;28;20028;-77
2021/03/02 04:46:57;;;;;;;6.60;4.75;;;3.60;81.10;;;;;;5074262;28;20028;-77
2021/03/02 04:49:23;;;;;;;7.07;5.22;;;3.50;81.10;;;;;;5072850;28;20024;-76
2021/03/02 04:51:49;;;;;;;7.15;5.15;;;3.60;81.30;;;;;;5072850;28;20382;-76
2021/03/02 04:54:15;;;;;;;6.90;4.78;;;3.60;81.60;;;;;;5072798;28;20020;-77
2021/03/02 04:56:40;;;;;;;10.25;5.93;;;3.70;82.00;;;;;;5072842;28;20077;-76
2021/03/02 04:59:06;;;;;;;6.80;5.28;;;3.80;81.90;;;;;;5073527;28;20382;-77
2021/03/02 05:01:33;;;;;;;9.43;5.53;;;3.90;81.90;;;;;;5074072;28;20098;-77
2021/03/02 05:03:59;;;;;;;7.05;5.05;;;4.00;82.40;;;;;;5072239;28;20051;-76
2021/03/02 05:06:25;;;;;;;7.82;5.50;;;4.30;83.00;;;;;;5073670;28;20471;-76
2021/03/02 05:08:51;;;;;;;7.15;5.15;;;4.60;83.50;;;;;;5072209;28;20039;-77
2021/03/02 05:11:17;;;;;;;7.82;5.35;;;5.00;83.80;;;;;;5073471;28;20084;-76
2021/03/02 05:13:43;;;;;;;9.15;5.43;;;5.40;83.70;;;;;;5073513;28;20061;-76
2021/03/02 05:16:10;;;;;;;7.47;5.20;;;6.10;84.70;;;;;;5073116;28;20032;-77
2021/03/02 05:18:36;;;;;;;7.20;4.60;;;6.90;84.70;;;;;;5073268;28;20059;-76
2021/03/02 05:21:03;;;;;;;7.22;5.32;;;7.60;83.60;;;;;;5073752;28;20024;-78
2021/03/02 05:23:29;;;;;;;8.18;5.60;;;8.50;82.80;;;;;;5072787;28;20044;-78
2021/03/02 05:25:55;;;;;;;6.80;5.30;;;9.50;81.90;;;;;;5072901;28;20021;-78
2021/03/02 05:28:20;;;;;;;7.63;5.30;;;10.40;80.30;;;;;;5072364;28;20032;-77
2021/03/02 05:30:46;;;;;;;7.40;5.28;;;11.20;76.40;;;;;;5072008;28;20017;-78
2021/03/02 05:33:12;;;;;;;12.65;5.88;;;11.70;73.80;;;;;;5072329;28;20416;-77
2021/03/02 05:35:37;;;;;;;8.32;6.10;;;12.10;71.90;;;;;;5072096;28;20104;-78
2021/03/02 05:38:03;;;;;;;8.90;6.43;;;12.60;70.30;;;;;;5071141;28;20025;-77
2021/03/02 05:40:29;;;;;;;8.65;6.07;;;13.10;68.60;;;;;;5072425;28;20066;-76
2021/03/02 05:42:56;;;;;;;7.93;5.93;;;13.60;67.30;;;;;;5072517;28;20023;-78
2021/03/02 05:45:22;;;;;;;6.93;5.72;;;14.10;65.50;;;;;;5071878;28;20012;-80
2021/03/02 05:47:49;;;;;;;13.20;6.70;;;14.60;64.00;;;;;;5076113;28;20552;-77
2021/03/02 05:50:16;;;;;;;7.40;5.82;;;15.10;62.90;;;;;;5070661;28;20454;-78
2021/03/02 05:52:43;;;;;;;7.85;5.97;;;15.70;61.60;;;;;;5070619;28;20104;-80
2021/03/02 05:55:10;;;;;;;9.13;6.10;;;16.30;59.90;;;;;;5072385;28;20096;-77
2021/03/02 05:57:38;;;;;;;8.90;6.43;;;16.80;58.40;;;;;;5072573;28;20044;-77
2021/03/02 06:00:05;;;;;;;8.07;5.78;;;17.30;57.00;;;;;;5072123;28;20025;-77
2021/03/02 06:02:31;;;;;;;9.68;5.97;;;17.60;55.20;;;;;;5071809;28;20055;-78
2021/03/02 06:04:57;;;;;;;6.38;5.43;;;18.00;54.10;;;;;;5073197;28;20099;-84
2021/03/02 06:07:23;;;;;;;7.35;5.68;;;18.40;53.40;;;;;;5079990;28;20020;-83
2021/03/02 06:09:49;;;;;;;5.85;4.80;;;18.70;52.10;;;;;;5078528;28;20533;-85
2021/03/02 06:12:15;;;;;;;5.95;4.82;;;18.70;50.50;;;;;;5072983;28;20017;-85
2021/03/02 06:14:40;;;;;;;8.30;4.72;;;18.20;48.90;;;;;;5073915;28;20028;-84
2021/03/02 06:17:07;;;;;;;6.68;4.80;;;17.70;49.00;;;;;;5073880;28;20021;-87
2021/03/02 06:19:44;;;;;;;6.88;4.97;;;17.50;49.20;;;;;;5073598;28;20440;-85
2021/03/02 06:22:39;;;;;;;10.10;4.70;;;17.40;49.20;;;;;;5073086;28;20028;-86
2021/03/02 06:25:29;;;;;;;6.30;4.85;;;17.40;49.20;;;;;;5071990;28;20024;-85
2021/03/02 06:27:55;;;;;;;6.80;4.55;;;17.40;48.60;;;;;;5073474;28;20032;-86
2021/03/02 06:30:21;;;;;;;6.93;5.25;;;17.30;48.40;;;;;;5072918;28;20478;-85
2021/03/02 06:32:52;;;;;;;7.38;5.10;;;17.10;48.30;;;;;;5073510;28;20422;-85
2021/03/02 06:35:47;;;;;;;8.52;5.65;;;16.70;47.90;;;;;;5074634;28;20389;-86
2021/03/02 06:38:33;;;;;;;8.07;6.40;;;16.20;48.10;;;;;;5066636;28;20043;-86
2021/03/02 06:41:01;;;;;;;5.97;4.97;;;15.80;48.00;;;;;;5073835;28;20111;-86
2021/03/02 06:43:40;;;;;;;7.00;5.07;;;15.10;48.00;;;;;;5073762;28;20024;-86
2021/03/02 06:46:07;;;;;;;7.47;5.53;;;14.40;48.50;;;;;;5074873;28;20085;-86
2021/03/02 06:48:50;;;;;;;6.25;5.13;;;13.80;49.20;;;;;;5074112;28;20119;-85
2021/03/02 06:51:25;;;;;;;;;;;13.10;50.00;;;;;;5075581;28;20028;-85
2021/03/02 06:54:10;;;;;;;7.05;5.13;;;12.50;50.70;;;;;;5084937;28;19904;-85
2021/03/02 06:56:39;;;;;;;8.85;6.32;;;12.00;51.20;;;;;;5085733;28;20028;-86
2021/03/02 06:59:08;;;;;;;10.13;6.25;;;11.50;52.00;;;;;;5075723;28;20032;-86
2021/03/02 07:01:38;;;;;;;10.50;6.47;;;11.00;52.80;;;;;;5075847;28;20028;-85
2021/03/02 07:04:10;;;;;;;10.38;6.38;;;10.60;53.60;;;;;;5074538;28;20057;-84
2021/03/02 07:06:37;;;;;;;11.45;7.35;;;10.20;54.30;;;;;;5073674;28;20028;-86
2021/03/02 07:09:04;;;;;;;8.35;6.03;;;10.00;55.00;;;;;;5074759;28;20036;-84
2021/03/02 07:11:31;;;;;;;8.68;6.10;;;9.70;55.60;;;;;;5074515;28;20024;-86
2021/03/02 07:13:58;;;;;;;9.65;5.60;;;9.60;56.20;;;;;;5071954;28;20025;-82
2021/03/02 07:16:24;;;;;;;9.85;6.47;;;9.30;56.70;;;;;;5071767;28;20052;-82
2021/03/02 07:18:51;;;;;;;8.27;6.13;;;9.20;57.30;;;;;;5072816;28;20385;-83
2021/03/02 07:21:19;;;;;;;9.35;6.43;;;9.00;57.70;;;;;;5071909;28;20035;-82
2021/03/02 07:23:45;;;;;;;10.75;6.60;;;8.80;58.30;;;;;;5071026;28;20020;-82
2021/03/02 07:26:12;;;;;;;13.48;6.65;;;8.70;58.70;;;;;;5071779;28;20073;-82
2021/03/02 07:28:40;;;;;;;10.23;6.47;;;8.60;59.10;;;;;;5071309;28;20021;-81
2021/03/02 07:31:08;;;;;;;10.70;6.85;;;8.50;59.50;;;;;;5071757;28;20025;-82
2021/03/02 07:33:34;;;;;;;10.07;6.65;;;8.50;59.90;;;;;;5072208;28;20104;-82
2021/03/02 07:36:00;;;;;;;9.48;6.50;;;8.40;60.30;;;;;;5072134;28;20020;-82
2021/03/02 07:38:26;;;;;;;11.15;7.90;;;8.40;60.70;;;;;;5071637;28;20550;-81
2021/03/02 07:40:54;;;;;;;10.25;7.00;;;8.40;60.90;;;;;;5072372;28;20381;-82
2021/03/02 07:43:36;;;;;;;14.82;10.30;;;8.30;61.10;;;;;;5067782;28;20029;-82
2021/03/02 07:46:31;;;;;;;11.52;7.88;;;8.30;61.30;;;;;;5072072;28;20032;-82
2021/03/02 07:48:56;;;;;;;12.38;8.20;;;8.20;61.50;;;;;;5072135;28;20025;-83
2021/03/02 07:51:24;;;;;;;10.63;6.78;;;8.10;61.50;;;;;;5071461;28;20090;-82
2021/03/02 07:53:51;;;;;;;10.25;7.63;;;8.00;61.60;;;;;;5079317;28;20478;-82
2021/03/02 07:56:22;;;;;;;11.13;7.60;;;7.90;62.00;;;;;;5071871;28;20025;-82
2021/03/02 07:59:10;;;;;;;9.32;6.95;;;7.80;62.30;;;;;;5069709;28;20036;-83
2021/03/02 08:01:36;;;;;;;10.80;7.97;;;7.70;62.70;;;;;;5070390;28;20025;-82
2021/03/02 08:04:14;;;;;;;11.60;7.65;;;7.60;62.90;;;;;;5071506;28;20060;-81
2021/03/02 08:06:44;;;;;;;11.60;7.50;;;7.50;63.40;;;;;;5070476;28;20040;-82
2021/03/02 08:09:26;;;;;;;10.60;6.78;;;7.50;63.70;;;;;;5072186;28;20355;-83
2021/03/02 08:11:57;;;;;;;17.13;8.55;;;7.50;63.90;;;;;;5071932;28;20052;-82
2021/03/02 08:14:26;;;;;;;11.52;8.38;;;7.50;64.10;;;;;;5072341;28;20411;-85
2021/03/02 08:17:04;;;;;;;12.40;8.70;;;7.40;64.20;;;;;;5071952;28;20104;-84
2021/03/02 08:19:47;;;;;;;10.43;7.63;;;7.40;64.40;;;;;;5071175;28;20331;-85
2021/03/02 08:22:19;;;;;;;14.73;9.00;;;7.40;64.60;;;;;;5072215;28;20031;-84
2021/03/02 08:24:51;;;;;;;15.30;10.50;;;7.30;64.70;;;;;;5072434;28;20063;-87
2021/03/02 08:27:37;;;;;;;12.45;8.43;;;7.20;64.90;;;;;;5070150;28;20024;-78
2021/03/02 08:30:07;;;;;;;13.20;8.73;;;7.20;65.10;;;;;;5056323;28;20051;-78
2021/03/02 08:32:34;;;;;;;23.30;13.73;;;7.20;65.40;;;;;;5052723;28;20372;-78
2021/03/02 08:35:12;;;;;;;19.92;12.15;;;7.20;65.50;;;;;;5072165;28;20032;-77
2021/03/02 08:37:41;;;;;;;20.92;14.23;;;7.10;65.60;;;;;;5073834;28;20052;-78
2021/03/02 08:40:09;;;;;;;19.00;11.52;;;7.00;65.50;;;;;;5074010;28;20025;-77
2021/03/02 08:42:35;;;;;;;12.75;9.63;;;6.90;66.00;;;;;;5073957;28;20397;-79
2021/03/02 08:45:10;;;;;;;15.93;10.00;;;6.80;66.40;;;;;;5072671;28;20355;-78
2021/03/02 08:47:38;;;;;;;20.52;11.43;;;6.80;66.70;;;;;;5073663;28;20029;-80
2021/03/02 08:50:05;;;;;;;11.43;8.60;;;6.80;67.00;;;;;;5072082;28;20028;-78
2021/03/02 08:52:40;;;;;;;13.00;9.13;;;6.80;67.00;;;;;;5073443;28;20035;-76
2021/03/02 08:55:07;;;;;;;13.05;8.90;;;6.80;67.20;;;;;;5072125;28;20051;-77
2021/03/02 08:57:46;;;;;;;14.73;9.90;;;6.80;67.40;;;;;;5073108;28;20028;-76
2021/03/02 09:00:14;;;;;;;11.85;9.30;;;6.90;67.60;;;;;;5071338;28;20039;-78
2021/03/02 09:02:46;;;;;;;18.88;11.32;;;6.80;67.20;;;;;;5072130;28;20490;-77
2021/03/02 09:05:18;;;;;;;13.43;9.03;;;6.70;67.50;;;;;;5072639;28;20036;-76
2021/03/02 09:08:07;;;;;;;14.45;10.32;;;6.70;68.30;;;;;;5072592;28;20279;-77
2021/03/02 09:10:33;;;;;;;18.67;9.10;;;6.70;67.90;;;;;;5072678;28;20032;-76
2021/03/02 09:12:59;;;;;;;18.20;11.45;;;6.70;68.10;;;;;;5072870;28;20036;-78
2021/03/02 09:15:47;;;;;;;16.67;12.30;;;6.70;68.30;;;;;;5071122;28;20029;-76
2021/03/02 09:18:17;;;;;;;15.43;9.93;;;6.80;68.50;;;;;;5071204;28;20073;-74
2021/03/02 09:20:56;;;;;;;16.38;10.15;;;6.80;68.60;;;;;;5072536;28;20029;-74
2021/03/02 09:23:22;;;;;;;15.45;10.35;;;6.80;68.50;;;;;;5072431;28;20103;-75
2021/03/02 09:25:52;;;;;;;15.10;9.80;;;6.80;68.50;;;;;;5072667;28;20107;-74
2021/03/02 09:28:19;;;;;;;15.30;10.23;;;6.80;68.60;;;;;;5070971;28;20028;-78
2021/03/02 09:30:46;;;;;;;21.02;13.27;;;6.80;68.50;;;;;;5072552;28;20047;-75
2021/03/02 09:33:16;;;;;;;16.40;9.65;;;6.80;68.50;;;;;;5070298;28;20033;-75
2021/03/02 09:35:42;;;;;;;14.55;9.40;;;6.70;68.50;;;;;;5071761;28;20059;-75
2021/03/02 09:38:26;;;;;;;17.50;10.35;;;6.70;68.70;;;;;;5072110;28;20105;-74
2021/03/02 09:40:52;;;;;;;17.00;10.82;;;6.70;68.90;;;;;;5070685;28;20035;-74
2021/03/02 09:43:18;;;;;;;16.92;10.20;;;6.70;68.90;;;;;;5071901;28;20112;-75
2021/03/02 09:45:53;;;;;;;17.45;10.98;;;6.70;69.00;;;;;;5071851;28;20025;-75
2021/03/02 09:48:19;;;;;;;15.88;9.80;;;6.60;68.90;;;;;;5070509;28;20085;-75
2021/03/02 09:50:45;;;;;;;17.25;11.20;;;6.60;69.00;;;;;;5070699;28;20447;-75
2021/03/02 09:53:15;;;;;;;19.55;11.43;;;6.60;69.30;;;;;;5071706;28;20130;-75
2021/03/02 09:55:42;;;;;;;15.88;10.90;;;6.50;69.30;;;;;;5070322;28;20020;-76
2021/03/02 09:58:14;;;;;;;19.02;11.73;;;6.50;69.40;;;;;;5070536;28;20024;-75
2021/03/02 10:00:46;;;;;;;21.73;13.05;;;6.50;69.50;;;;;;5071838;28;20047;-77
2021/03/02 10:03:24;;;;;;;20.53;12.07;;;6.50;69.50;;;;;;5071694;28;20040;-77
2021/03/02 10:06:02;;;;;;;21.15;12.20;;;6.40;69.50;;;;;;5071784;28;20258;-76
2021/03/02 10:08:28;;;;;;;19.48;11.30;;;6.40;69.80;;;;;;5070968;28;20060;-76
2021/03/02 10:10:56;;;;;;;20.23;13.07;;;6.40;69.90;;;;;;5071314;28;20434;-76
2021/03/02 10:13:31;;;;;;;29.13;15.48;;;6.40;70.00;;;;;;5071293;28;20048;-76
2021/03/02 10:16:15;;;;;;;21.25;12.35;;;6.40;70.20;;;;;;5071301;28;20090;-77
2021/03/02 10:19:00;;;;;;;19.98;13.10;;;6.40;70.30;;;;;;5071302;28;20024;-76
2021/03/02 10:21:42;;;;;;;19.40;11.70;;;6.40;70.20;;;;;;5069911;28;20029;-76
2021/03/02 10:24:09;;;;;;;21.70;13.70;;;6.40;70.20;;;;;;5071037;28;20032;-76
2021/03/02 10:26:36;;;;;;;28.52;14.70;;;6.40;70.20;;;;;;5071534;28;20175;-75
2021/03/02 10:29:06;;;;;;;25.45;14.18;;;6.40;70.20;;;;;;5071228;28;20040;-76
2021/03/02 10:31:32;;;;;;;24.67;13.30;;;6.30;70.00;;;;;;5069606;28;20166;-75
2021/03/02 10:34:01;;;;;;;26.27;14.27;;;6.30;70.40;;;;;;5071097;28;20017;-74
2021/03/02 10:36:26;;;;;;;26.75;14.98;;;6.30;70.60;;;;;;5071034;28;20025;-74
2021/03/02 10:38:54;;;;;;;28.77;15.25;;;6.30;70.70;;;;;;5071055;28;20029;-76
2021/03/02 10:41:20;;;;;;;26.48;14.93;;;6.20;70.90;;;;;;5071283;28;20025;-77
2021/03/02 10:43:48;;;;;;;29.58;14.93;;;6.30;70.80;;;;;;5070745;28;20028;-75
2021/03/02 10:46:14;;;;;;;26.15;14.90;;;6.30;70.90;;;;;;5071071;28;20059;-77
2021/03/02 10:48:40;;;;;;;30.92;16.17;;;6.30;70.60;;;;;;5071166;28;20024;-76
2021/03/02 10:51:05;;;;;;;32.47;16.88;;;6.30;70.60;;;;;;5070861;28;20029;-76
2021/03/02 10:53:31;;;;;;;30.02;15.95;;;6.20;70.40;;;;;;5071032;28;20115;-78
2021/03/02 10:55:57;;;;;;;31.20;15.32;;;6.20;70.70;;;;;;5071282;28;20064;-76
2021/03/02 10:58:24;;;;;;;36.92;17.95;;;6.20;70.70;;;;;;5070020;28;20037;-76
2021/03/02 11:00:50;;;;;;;31.10;16.02;;;6.10;70.80;;;;;;5069659;28;20028;-75
2021/03/02 11:03:16;;;;;;;37.30;18.33;;;6.10;70.90;;;;;;5070536;28;20677;-75
2021/03/02 11:05:42;;;;;;;39.38;17.55;;;6.00;70.90;;;;;;5070520;28;20059;-78
2021/03/02 11:08:08;;;;;;;40.05;18.88;;;6.00;71.10;;;;;;5068517;28;20032;-76
2021/03/02 11:10:33;;;;;;;36.72;17.45;;;6.00;71.10;;;;;;5070503;28;20024;-74
2021/03/02 11:12:59;;;;;;;42.17;19.02;;;5.90;71.20;;;;;;5070232;28;20027;-75
2021/03/02 11:15:25;;;;;;;39.78;19.00;;;5.90;71.20;;;;;;5070260;28;20358;-76
2021/03/02 11:17:51;;;;;;;44.05;18.55;;;5.80;71.20;;;;;;5070406;28;20098;-75
2021/03/02 11:20:17;;;;;;;37.35;18.40;;;5.80;71.30;;;;;;5068698;28;20020;-75
2021/03/02 11:22:43;;;;;;;40.13;17.98;;;5.70;71.40;;;;;;5069927;28;20111;-74
2021/03/02 11:25:09;;;;;;;47.47;19.27;;;5.70;71.70;;;;;;5069224;28;20111;-76
2021/03/02 11:27:34;;;;;;;43.55;20.35;;;5.70;72.20;;;;;;5070453;28;20340;-74
2021/03/02 11:30:00;;;;;;;45.45;19.33;;;5.70;72.10;;;;;;5070458;28;20028;-76
2021/03/02 11:32:26;;;;;;;44.25;19.70;;;5.70;72.20;;;;;;5070347;28;20511;-76
2021/03/02 11:34:52;;;;;;;36.55;17.75;;;5.70;72.30;;;;;;5069322;28;20055;-76
2021/03/02 11:37:17;;;;;;;40.83;20.08;;;5.80;72.50;;;;;;5068804;28;20029;-75
2021/03/02 11:39:43;;;;;;;39.90;18.88;;;5.80;72.50;;;;;;5069380;28;20791;-75
2021/03/02 11:42:09;;;;;;;40.13;18.92;;;5.80;72.50;;;;;;5070326;28;20470;-75
2021/03/02 11:44:35;;;;;;;37.95;18.20;;;5.80;72.50;;;;;;5070455;28;20502;-76
2021/03/02 11:47:01;;;;;;;41.08;18.67;;;5.90;72.70;;;;;;5070309;28;20029;-76
2021/03/02 11:49:26;;;;;;;38.15;17.77;;;6.00;72.80;;;;;;5070151;28;20027;-76
2021/03/02 11:51:52;;;;;;;40.30;18.65;;;6.00;72.70;;;;;;5070115;28;20021;-76
2021/03/02 11:54:18;;;;;;;39.92;20.27;;;6.00;72.60;;;;;;5068859;28;20394;-76
2021/03/02 11:56:44;;;;;;;38.85;18.80;;;6.10;72.60;;;;;;5069959;28;20024;-75
2021/03/02 11:59:09;;;;;;;45.72;19.52;;;6.10;72.30;;;;;;5069900;28;20099;-75
2021/03/02 12:01:35;;;;;;;38.72;19.08;;;6.10;72.30;;;;;;5069848;28;20077;-77
2021/03/02 12:04:01;;;;;;;39.80;18.38;;;6.20;72.30;;;;;;5068493;28;20056;-76
2021/03/02 12:06:27;;;;;;;40.05;18.27;;;6.20;72.30;;;;;;5070284;28;20222;-76
2021/03/02 12:08:52;;;;;;;42.25;19.08;;;6.20;72.30;;;;;;5071948;28;20040;-75
2021/03/02 12:11:18;;;;;;;39.33;19.00;;;6.20;72.20;;;;;;5073711;28;20040;-77
2021/03/02 12:13:44;;;;;;;39.25;18.48;;;6.20;72.10;;;;;;5073912;28;20025;-77
2021/03/02 12:16:10;;;;;;;43.38;19.67;;;6.10;72.10;;;;;;5073713;28;20024;-76
2021/03/02 12:18:35;;;;;;;36.92;18.02;;;6.10;71.90;;;;;;5073455;28;20029;-77
2021/03/02 12:21:01;;;;;;;38.22;18.23;;;6.10;72.00;;;;;;5073746;28;20028;-74
2021/03/02 12:23:27;;;;;;;36.67;17.13;;;6.00;72.10;;;;;;5073144;28;20779;-75
2021/03/02 12:25:53;;;;;;;40.42;18.20;;;6.00;72.10;;;;;;5073394;28;20109;-75
2021/03/02 12:28:18;;;;;;;38.13;17.52;;;6.00;72.30;;;;;;5072984;28;20143;-77
2021/03/02 12:30:44;;;;;;;40.40;18.85;;;6.00;72.30;;;;;;5073286;28;20103;-75
2021/03/02 12:33:10;;;;;;;38.78;19.40;;;6.00;72.50;;;;;;5073413;28;20024;-75
2021/03/02 12:35:36;;;;;;;41.90;20.70;;;6.00;72.40;;;;;;5073800;28;20027;-75
2021/03/02 12:38:02;;;;;;;43.45;20.92;;;6.00;72.30;;;;;;5072167;28;20025;-77
2021/03/02 12:40:27;;;;;;;41.33;18.75;;;6.10;72.50;;;;;;5073179;28;20069;-76
2021/03/02 12:42:53;;;;;;;42.80;19.35;;;6.00;72.50;;;;;;5073194;28;20096;-76
2021/03/02 12:45:19;;;;;;;44.65;20.27;;;6.00;72.40;;;;;;5073640;28;20021;-76
2021/03/02 12:47:45;;;;;;;42.65;19.63;;;6.00;72.50;;;;;;5073278;28;20053;-76
2021/03/02 12:50:11;;;;;;;41.78;18.80;;;6.00;72.50;;;;;;5073303;28;20467;-75
2021/03/02 12:52:37;;;;;;;44.50;20.40;;;6.00;72.60;;;;;;5071744;28;20108;-76